sensor_id;sensor_type;location;lat;lon;timestamp;P1;durP1;ratioP1;P2;durP2;ratioP2
72557;SDS011;60583;50.094;8.748;2022-09-30T00:01:43;8.27;;;5.07;;
72557;SDS011;60583;50.094;8.748;2022-09-30T00:04:13;9.07;;;5.10;;
72557;SDS011;60583;50.094;8.748;2022-09-30T00:06:42;10.55;;;5.40;;
72557;SDS011;60583;50.094;8.748;2022-09-30T00:09:08;8.65;;;5.10;;
72557;SDS011;60583;50.094;8.748;2022-09-30T00:11:35;9.32;;;5.03;;
72557;SDS011;60583;50.094;8.748;2022-09-30T00:14:02;9.32;;;5.35;;
72557;SDS011;60583;50.094;8.748;2022-09-30T00:16:29;9.65;;;5.72;;
72557;SDS011;60583;50.094;8.748;2022-09-30T00:18:56;9.75;;;5.45;;
72557;SDS011;60583;50.094;8.748;2022-09-30T00:21:23;8.88;;;5.53;;
72557;SDS011;60583;50.094;8.748;2022-09-30T00:23:49;8.82;;;5.82;;
72557;SDS011;60583;50.094;8.748;2022-09-30T00:26:16;8.15;;;4.88;;
72557;SDS011;60583;50.094;8.748;2022-09-30T00:28:43;9.88;;;5.45;;
72557;SDS011;60583;50.094;8.748;2022-09-30T00:31:11;8.63;;;5.20;;
72557;SDS011;60583;50.094;8.748;2022-09-30T00:33:37;8.48;;;5.10;;
72557;SDS011;60583;50.094;8.748;2022-09-30T00:36:03;8.98;;;5.15;;
72557;SDS011;60583;50.094;8.748;2022-09-30T00:38:29;11.20;;;6.05;;
72557;SDS011;60583;50.094;8.748;2022-09-30T00:40:55;9.98;;;5.82;;
72557;SDS011;60583;50.094;8.748;2022-09-30T00:46:05;11.18;;;5.32;;
72557;SDS011;60583;50.094;8.748;2022-09-30T00:48:50;7.28;;;5.78;;
72557;SDS011;60583;50.094;8.748;2022-09-30T00:51:19;9.52;;;4.63;;
72557;SDS011;60583;50.094;8.748;2022-09-30T00:53:57;11.23;;;6.53;;
72557;SDS011;60583;50.094;8.748;2022-09-30T00:56:29;10.80;;;5.45;;
72557;SDS011;60583;50.094;8.748;2022-09-30T00:59:10;9.38;;;5.80;;
72557;SDS011;60583;50.094;8.748;2022-09-30T01:01:40;9.55;;;5.30;;
72557;SDS011;60583;50.094;8.748;2022-09-30T01:04:10;8.13;;;5.22;;
72557;SDS011;60583;50.094;8.748;2022-09-30T01:06:38;8.40;;;5.07;;
72557;SDS011;60583;50.094;8.748;2022-09-30T01:09:05;10.55;;;5.63;;
72557;SDS011;60583;50.094;8.748;2022-09-30T01:11:30;10.20;;;5.88;;
72557;SDS011;60583;50.094;8.748;2022-09-30T01:14:16;9.63;;;5.00;;
72557;SDS011;60583;50.094;8.748;2022-09-30T01:16:54;11.90;;;5.30;;
72557;SDS011;60583;50.094;8.748;2022-09-30T01:44:04;9.98;;;5.20;;
72557;SDS011;60583;50.094;8.748;2022-09-30T01:46:41;11.50;;;6.10;;
72557;SDS011;60583;50.094;8.748;2022-09-30T01:49:12;8.50;;;5.13;;
72557;SDS011;60583;50.094;8.748;2022-09-30T01:51:51;8.57;;;5.50;;
72557;SDS011;60583;50.094;8.748;2022-09-30T01:57:16;9.57;;;5.90;;
72557;SDS011;60583;50.094;8.748;2022-09-30T01:59:56;10.18;;;5.57;;
72557;SDS011;60583;50.094;8.748;2022-09-30T02:02:28;8.43;;;5.95;;
72557;SDS011;60583;50.094;8.748;2022-09-30T02:04:58;8.30;;;4.85;;
72557;SDS011;60583;50.094;8.748;2022-09-30T02:09:58;8.40;;;5.55;;
72557;SDS011;60583;50.094;8.748;2022-09-30T02:12:28;8.57;;;5.50;;
72557;SDS011;60583;50.094;8.748;2022-09-30T02:15:00;9.98;;;5.32;;
72557;SDS011;60583;50.094;8.748;2022-09-30T02:17:52;8.82;;;5.80;;
72557;SDS011;60583;50.094;8.748;2022-09-30T02:20:30;7.85;;;4.85;;
72557;SDS011;60583;50.094;8.748;2022-09-30T02:23:01;7.78;;;4.93;;
72557;SDS011;60583;50.094;8.748;2022-09-30T02:25:34;9.25;;;6.40;;
72557;SDS011;60583;50.094;8.748;2022-09-30T02:28:05;7.75;;;5.03;;
72557;SDS011;60583;50.094;8.748;2022-09-30T02:30:36;9.45;;;5.95;;
72557;SDS011;60583;50.094;8.748;2022-09-30T02:33:18;8.43;;;5.40;;
72557;SDS011;60583;50.094;8.748;2022-09-30T02:35:48;9.38;;;5.35;;
72557;SDS011;60583;50.094;8.748;2022-09-30T02:38:30;10.95;;;5.70;;
72557;SDS011;60583;50.094;8.748;2022-09-30T02:41:03;8.05;;;5.10;;
72557;SDS011;60583;50.094;8.748;2022-09-30T02:43:32;9.20;;;6.10;;
72557;SDS011;60583;50.094;8.748;2022-09-30T02:46:06;8.25;;;5.22;;
72557;SDS011;60583;50.094;8.748;2022-09-30T02:51:18;8.95;;;6.10;;
72557;SDS011;60583;50.094;8.748;2022-09-30T02:54:02;9.60;;;6.13;;
72557;SDS011;60583;50.094;8.748;2022-09-30T02:59:38;14.27;;;7.07;;
72557;SDS011;60583;50.094;8.748;2022-09-30T03:02:04;10.13;;;6.25;;
72557;SDS011;60583;50.094;8.748;2022-09-30T03:04:29;10.48;;;6.53;;
72557;SDS011;60583;50.094;8.748;2022-09-30T03:06:58;11.32;;;6.68;;
72557;SDS011;60583;50.094;8.748;2022-09-30T03:09:25;8.15;;;5.20;;
72557;SDS011;60583;50.094;8.748;2022-09-30T03:11:53;9.52;;;6.20;;
72557;SDS011;60583;50.094;8.748;2022-09-30T03:14:51;8.93;;;5.45;;
72557;SDS011;60583;50.094;8.748;2022-09-30T03:17:50;9.02;;;5.82;;
72557;SDS011;60583;50.094;8.748;2022-09-30T03:20:34;9.68;;;5.10;;
72557;SDS011;60583;50.094;8.748;2022-09-30T03:25:55;8.85;;;5.57;;
72557;SDS011;60583;50.094;8.748;2022-09-30T03:28:35;8.40;;;5.82;;
72557;SDS011;60583;50.094;8.748;2022-09-30T03:31:16;8.52;;;5.15;;
72557;SDS011;60583;50.094;8.748;2022-09-30T03:33:56;9.20;;;5.65;;
72557;SDS011;60583;50.094;8.748;2022-09-30T03:36:39;8.88;;;4.72;;
72557;SDS011;60583;50.094;8.748;2022-09-30T03:44:29;7.45;;;4.88;;
72557;SDS011;60583;50.094;8.748;2022-09-30T03:47:05;9.30;;;5.45;;
72557;SDS011;60583;50.094;8.748;2022-09-30T03:49:35;8.55;;;5.30;;
72557;SDS011;60583;50.094;8.748;2022-09-30T03:52:04;7.47;;;4.95;;
72557;SDS011;60583;50.094;8.748;2022-09-30T03:54:31;9.25;;;5.60;;
72557;SDS011;60583;50.094;8.748;2022-09-30T03:56:57;8.73;;;5.20;;
72557;SDS011;60583;50.094;8.748;2022-09-30T03:59:27;7.68;;;4.85;;
72557;SDS011;60583;50.094;8.748;2022-09-30T04:01:53;8.63;;;4.70;;
72557;SDS011;60583;50.094;8.748;2022-09-30T04:04:19;8.27;;;5.53;;
72557;SDS011;60583;50.094;8.748;2022-09-30T04:06:44;9.73;;;6.03;;
72557;SDS011;60583;50.094;8.748;2022-09-30T04:09:10;8.90;;;5.07;;
72557;SDS011;60583;50.094;8.748;2022-09-30T04:11:35;8.15;;;5.65;;
72557;SDS011;60583;50.094;8.748;2022-09-30T04:14:01;8.43;;;5.93;;
72557;SDS011;60583;50.094;8.748;2022-09-30T04:16:30;10.35;;;6.03;;
72557;SDS011;60583;50.094;8.748;2022-09-30T04:18:56;8.52;;;5.57;;
72557;SDS011;60583;50.094;8.748;2022-09-30T04:21:22;10.40;;;5.78;;
72557;SDS011;60583;50.094;8.748;2022-09-30T04:23:48;8.63;;;5.63;;
72557;SDS011;60583;50.094;8.748;2022-09-30T04:26:14;9.32;;;5.25;;
72557;SDS011;60583;50.094;8.748;2022-09-30T04:28:41;7.55;;;4.90;;
72557;SDS011;60583;50.094;8.748;2022-09-30T04:31:08;13.57;;;7.28;;
72557;SDS011;60583;50.094;8.748;2022-09-30T04:33:36;10.63;;;6.78;;
72557;SDS011;60583;50.094;8.748;2022-09-30T04:36:02;8.77;;;5.90;;
72557;SDS011;60583;50.094;8.748;2022-09-30T04:38:28;8.18;;;5.55;;
72557;SDS011;60583;50.094;8.748;2022-09-30T04:40:53;8.27;;;5.15;;
72557;SDS011;60583;50.094;8.748;2022-09-30T04:43:19;10.00;;;5.47;;
72557;SDS011;60583;50.094;8.748;2022-09-30T04:45:49;8.90;;;5.70;;
72557;SDS011;60583;50.094;8.748;2022-09-30T04:48:16;7.18;;;4.45;;
72557;SDS011;60583;50.094;8.748;2022-09-30T04:50:42;7.63;;;4.55;;
72557;SDS011;60583;50.094;8.748;2022-09-30T04:53:10;8.70;;;5.32;;
72557;SDS011;60583;50.094;8.748;2022-09-30T04:55:36;12.13;;;7.38;;
72557;SDS011;60583;50.094;8.748;2022-09-30T04:58:02;12.32;;;8.70;;
72557;SDS011;60583;50.094;8.748;2022-09-30T05:00:28;12.38;;;6.28;;
72557;SDS011;60583;50.094;8.748;2022-09-30T05:02:54;8.10;;;5.50;;
72557;SDS011;60583;50.094;8.748;2022-09-30T05:05:19;9.38;;;5.63;;
72557;SDS011;60583;50.094;8.748;2022-09-30T05:07:45;9.43;;;5.50;;
72557;SDS011;60583;50.094;8.748;2022-09-30T05:10:10;8.68;;;5.65;;
72557;SDS011;60583;50.094;8.748;2022-09-30T05:12:36;8.95;;;5.00;;
72557;SDS011;60583;50.094;8.748;2022-09-30T05:15:05;9.25;;;5.10;;
72557;SDS011;60583;50.094;8.748;2022-09-30T05:17:31;8.48;;;6.00;;
72557;SDS011;60583;50.094;8.748;2022-09-30T05:19:57;11.50;;;6.57;;
72557;SDS011;60583;50.094;8.748;2022-09-30T05:22:22;9.52;;;5.85;;
72557;SDS011;60583;50.094;8.748;2022-09-30T05:24:49;10.45;;;5.70;;
72557;SDS011;60583;50.094;8.748;2022-09-30T05:27:16;8.88;;;5.47;;
72557;SDS011;60583;50.094;8.748;2022-09-30T05:29:43;8.60;;;5.97;;
72557;SDS011;60583;50.094;8.748;2022-09-30T05:32:08;8.77;;;5.68;;
72557;SDS011;60583;50.094;8.748;2022-09-30T05:34:34;8.80;;;4.93;;
72557;SDS011;60583;50.094;8.748;2022-09-30T05:36:59;8.45;;;5.22;;
72557;SDS011;60583;50.094;8.748;2022-09-30T05:39:25;8.27;;;5.00;;
72557;SDS011;60583;50.094;8.748;2022-09-30T05:41:50;10.65;;;5.75;;
72557;SDS011;60583;50.094;8.748;2022-09-30T05:44:16;9.77;;;4.95;;
72557;SDS011;60583;50.094;8.748;2022-09-30T05:46:42;8.45;;;4.93;;
72557;SDS011;60583;50.094;8.748;2022-09-30T05:49:07;9.70;;;5.80;;
72557;SDS011;60583;50.094;8.748;2022-09-30T05:51:32;9.13;;;5.43;;
72557;SDS011;60583;50.094;8.748;2022-09-30T05:53:58;10.50;;;5.60;;
72557;SDS011;60583;50.094;8.748;2022-09-30T05:56:23;10.43;;;5.72;;
72557;SDS011;60583;50.094;8.748;2022-09-30T05:58:49;10.98;;;6.40;;
72557;SDS011;60583;50.094;8.748;2022-09-30T06:01:15;10.13;;;6.20;;
72557;SDS011;60583;50.094;8.748;2022-09-30T06:03:43;8.85;;;5.97;;
72557;SDS011;60583;50.094;8.748;2022-09-30T06:06:10;11.93;;;6.05;;
72557;SDS011;60583;50.094;8.748;2022-09-30T06:08:37;10.10;;;5.85;;
72557;SDS011;60583;50.094;8.748;2022-09-30T06:11:14;9.70;;;5.22;;
72557;SDS011;60583;50.094;8.748;2022-09-30T06:13:42;8.40;;;5.63;;
72557;SDS011;60583;50.094;8.748;2022-09-30T06:16:09;8.75;;;5.18;;
72557;SDS011;60583;50.094;8.748;2022-09-30T06:18:36;10.00;;;4.90;;
72557;SDS011;60583;50.094;8.748;2022-09-30T06:21:05;8.77;;;5.25;;
72557;SDS011;60583;50.094;8.748;2022-09-30T06:23:33;9.32;;;5.70;;
72557;SDS011;60583;50.094;8.748;2022-09-30T06:25:59;8.10;;;5.07;;
72557;SDS011;60583;50.094;8.748;2022-09-30T06:28:26;9.85;;;5.18;;
72557;SDS011;60583;50.094;8.748;2022-09-30T06:30:52;8.55;;;6.45;;
72557;SDS011;60583;50.094;8.748;2022-09-30T06:33:18;10.45;;;5.70;;
72557;SDS011;60583;50.094;8.748;2022-09-30T06:35:44;10.73;;;5.82;;
72557;SDS011;60583;50.094;8.748;2022-09-30T06:38:11;9.50;;;6.20;;
72557;SDS011;60583;50.094;8.748;2022-09-30T06:40:39;8.90;;;5.68;;
72557;SDS011;60583;50.094;8.748;2022-09-30T06:43:05;7.53;;;5.18;;
72557;SDS011;60583;50.094;8.748;2022-09-30T06:45:31;9.00;;;5.78;;
72557;SDS011;60583;50.094;8.748;2022-09-30T06:48:00;10.63;;;5.75;;
72557;SDS011;60583;50.094;8.748;2022-09-30T06:50:27;10.20;;;5.43;;
72557;SDS011;60583;50.094;8.748;2022-09-30T06:52:57;9.18;;;5.13;;
72557;SDS011;60583;50.094;8.748;2022-09-30T06:55:24;8.18;;;4.72;;
72557;SDS011;60583;50.094;8.748;2022-09-30T06:57:54;8.30;;;5.20;;
72557;SDS011;60583;50.094;8.748;2022-09-30T07:00:20;9.48;;;6.63;;
72557;SDS011;60583;50.094;8.748;2022-09-30T07:02:46;10.07;;;7.05;;
72557;SDS011;60583;50.094;8.748;2022-09-30T07:05:12;8.43;;;6.10;;
72557;SDS011;60583;50.094;8.748;2022-09-30T07:07:39;9.82;;;5.20;;
72557;SDS011;60583;50.094;8.748;2022-09-30T07:10:06;8.88;;;5.82;;
72557;SDS011;60583;50.094;8.748;2022-09-30T07:12:32;8.95;;;5.63;;
72557;SDS011;60583;50.094;8.748;2022-09-30T07:14:58;10.43;;;5.80;;
72557;SDS011;60583;50.094;8.748;2022-09-30T07:17:24;9.63;;;5.35;;
72557;SDS011;60583;50.094;8.748;2022-09-30T07:19:50;8.07;;;5.50;;
72557;SDS011;60583;50.094;8.748;2022-09-30T07:22:16;9.50;;;5.72;;
72557;SDS011;60583;50.094;8.748;2022-09-30T07:24:57;11.50;;;6.90;;
72557;SDS011;60583;50.094;8.748;2022-09-30T07:27:25;18.23;;;9.75;;
72557;SDS011;60583;50.094;8.748;2022-09-30T07:29:55;11.98;;;7.70;;
72557;SDS011;60583;50.094;8.748;2022-09-30T07:32:21;11.55;;;7.25;;
72557;SDS011;60583;50.094;8.748;2022-09-30T07:34:47;9.15;;;6.18;;
72557;SDS011;60583;50.094;8.748;2022-09-30T07:37:13;10.32;;;7.05;;
72557;SDS011;60583;50.094;8.748;2022-09-30T07:39:41;16.40;;;9.20;;
72557;SDS011;60583;50.094;8.748;2022-09-30T07:42:08;9.90;;;6.32;;
72557;SDS011;60583;50.094;8.748;2022-09-30T07:44:34;8.40;;;5.03;;
72557;SDS011;60583;50.094;8.748;2022-09-30T07:47:01;8.75;;;4.95;;
72557;SDS011;60583;50.094;8.748;2022-09-30T07:49:27;7.40;;;4.88;;
72557;SDS011;60583;50.094;8.748;2022-09-30T07:51:53;8.18;;;5.00;;
72557;SDS011;60583;50.094;8.748;2022-09-30T07:54:21;6.75;;;4.57;;
72557;SDS011;60583;50.094;8.748;2022-09-30T07:56:49;7.22;;;4.60;;
72557;SDS011;60583;50.094;8.748;2022-09-30T07:59:15;7.85;;;4.20;;
72557;SDS011;60583;50.094;8.748;2022-09-30T08:01:41;7.22;;;5.00;;
72557;SDS011;60583;50.094;8.748;2022-09-30T08:04:08;6.72;;;4.30;;
72557;SDS011;60583;50.094;8.748;2022-09-30T08:06:37;7.35;;;4.10;;
72557;SDS011;60583;50.094;8.748;2022-09-30T08:09:04;6.47;;;4.13;;
72557;SDS011;60583;50.094;8.748;2022-09-30T08:11:33;8.15;;;5.13;;
72557;SDS011;60583;50.094;8.748;2022-09-30T08:14:00;9.27;;;4.78;;
72557;SDS011;60583;50.094;8.748;2022-09-30T08:16:26;7.75;;;5.20;;
72557;SDS011;60583;50.094;8.748;2022-09-30T08:18:58;7.43;;;4.30;;
72557;SDS011;60583;50.094;8.748;2022-09-30T08:21:25;6.57;;;4.70;;
72557;SDS011;60583;50.094;8.748;2022-09-30T08:23:51;8.63;;;4.70;;
72557;SDS011;60583;50.094;8.748;2022-09-30T08:26:16;6.47;;;4.00;;
72557;SDS011;60583;50.094;8.748;2022-09-30T08:28:43;7.00;;;4.63;;
72557;SDS011;60583;50.094;8.748;2022-09-30T08:33:37;7.10;;;5.03;;
72557;SDS011;60583;50.094;8.748;2022-09-30T08:36:07;7.30;;;4.43;;
72557;SDS011;60583;50.094;8.748;2022-09-30T08:38:34;7.22;;;5.13;;
72557;SDS011;60583;50.094;8.748;2022-09-30T08:41:06;6.60;;;4.72;;
72557;SDS011;60583;50.094;8.748;2022-09-30T08:46:25;10.32;;;6.43;;
72557;SDS011;60583;50.094;8.748;2022-09-30T08:51:55;8.98;;;6.20;;
72557;SDS011;60583;50.094;8.748;2022-09-30T08:54:24;6.57;;;4.32;;
72557;SDS011;60583;50.094;8.748;2022-09-30T08:56:53;6.78;;;4.10;;
72557;SDS011;60583;50.094;8.748;2022-09-30T08:59:23;6.22;;;5.13;;
72557;SDS011;60583;50.094;8.748;2022-09-30T09:04:58;7.55;;;4.40;;
72557;SDS011;60583;50.094;8.748;2022-09-30T09:07:36;7.13;;;5.13;;
72557;SDS011;60583;50.094;8.748;2022-09-30T09:13:11;7.78;;;4.43;;
72557;SDS011;60583;50.094;8.748;2022-09-30T09:15:58;7.53;;;5.25;;
72557;SDS011;60583;50.094;8.748;2022-09-30T09:18:37;6.75;;;4.60;;
72557;SDS011;60583;50.094;8.748;2022-09-30T09:24:15;8.25;;;6.10;;
72557;SDS011;60583;50.094;8.748;2022-09-30T09:26:43;9.90;;;6.75;;
72557;SDS011;60583;50.094;8.748;2022-09-30T09:29:24;9.70;;;5.85;;
72557;SDS011;60583;50.094;8.748;2022-09-30T09:32:05;7.28;;;4.57;;
72557;SDS011;60583;50.094;8.748;2022-09-30T09:34:38;8.10;;;4.90;;
72557;SDS011;60583;50.094;8.748;2022-09-30T09:40:17;8.18;;;4.93;;
72557;SDS011;60583;50.094;8.748;2022-09-30T09:48:48;7.95;;;4.82;;
72557;SDS011;60583;50.094;8.748;2022-09-30T09:51:49;6.40;;;4.80;;
72557;SDS011;60583;50.094;8.748;2022-09-30T09:54:23;5.80;;;3.92;;
72557;SDS011;60583;50.094;8.748;2022-09-30T09:56:52;7.15;;;4.45;;
72557;SDS011;60583;50.094;8.748;2022-09-30T09:59:19;5.75;;;4.22;;
72557;SDS011;60583;50.094;8.748;2022-09-30T10:04:15;7.30;;;4.80;;
72557;SDS011;60583;50.094;8.748;2022-09-30T10:09:22;7.22;;;3.95;;
72557;SDS011;60583;50.094;8.748;2022-09-30T10:11:47;6.95;;;4.70;;
72557;SDS011;60583;50.094;8.748;2022-09-30T10:14:16;6.45;;;4.47;;
72557;SDS011;60583;50.094;8.748;2022-09-30T10:16:46;8.05;;;4.45;;
72557;SDS011;60583;50.094;8.748;2022-09-30T10:19:31;7.05;;;5.00;;
72557;SDS011;60583;50.094;8.748;2022-09-30T10:24:33;6.68;;;4.47;;
72557;SDS011;60583;50.094;8.748;2022-09-30T10:27:00;5.82;;;4.38;;
72557;SDS011;60583;50.094;8.748;2022-09-30T10:29:30;5.38;;;3.17;;
72557;SDS011;60583;50.094;8.748;2022-09-30T10:31:58;5.45;;;3.95;;
72557;SDS011;60583;50.094;8.748;2022-09-30T10:34:33;6.20;;;4.03;;
72557;SDS011;60583;50.094;8.748;2022-09-30T10:37:06;5.45;;;3.60;;
72557;SDS011;60583;50.094;8.748;2022-09-30T10:39:36;5.03;;;3.70;;
72557;SDS011;60583;50.094;8.748;2022-09-30T10:42:17;5.35;;;3.50;;
72557;SDS011;60583;50.094;8.748;2022-09-30T10:44:57;4.45;;;2.88;;
72557;SDS011;60583;50.094;8.748;2022-09-30T10:47:30;5.38;;;3.28;;
72557;SDS011;60583;50.094;8.748;2022-09-30T10:50:01;5.55;;;3.50;;
72557;SDS011;60583;50.094;8.748;2022-09-30T10:52:36;6.82;;;4.53;;
72557;SDS011;60583;50.094;8.748;2022-09-30T10:57:50;6.25;;;2.88;;
72557;SDS011;60583;50.094;8.748;2022-09-30T11:00:18;5.07;;;2.83;;
72557;SDS011;60583;50.094;8.748;2022-09-30T11:05:47;3.80;;;2.40;;
72557;SDS011;60583;50.094;8.748;2022-09-30T11:08:21;5.40;;;2.80;;
72557;SDS011;60583;50.094;8.748;2022-09-30T11:11:04;4.82;;;2.75;;
72557;SDS011;60583;50.094;8.748;2022-09-30T11:13:42;4.32;;;2.78;;
72557;SDS011;60583;50.094;8.748;2022-09-30T11:24:24;5.93;;;2.75;;
72557;SDS011;60583;50.094;8.748;2022-09-30T11:42:54;4.63;;;2.42;;
72557;SDS011;60583;50.094;8.748;2022-09-30T11:48:19;3.88;;;2.55;;
72557;SDS011;60583;50.094;8.748;2022-09-30T11:53:36;6.20;;;2.80;;
72557;SDS011;60583;50.094;8.748;2022-09-30T11:59:06;3.53;;;2.55;;
72557;SDS011;60583;50.094;8.748;2022-09-30T12:01:57;4.00;;;2.92;;
72557;SDS011;60583;50.094;8.748;2022-09-30T12:04:29;4.28;;;2.33;;
72557;SDS011;60583;50.094;8.748;2022-09-30T12:07:04;4.55;;;2.50;;
72557;SDS011;60583;50.094;8.748;2022-09-30T12:09:44;4.28;;;2.50;;
72557;SDS011;60583;50.094;8.748;2022-09-30T12:12:13;5.20;;;2.53;;
72557;SDS011;60583;50.094;8.748;2022-09-30T12:14:42;2.97;;;2.03;;
72557;SDS011;60583;50.094;8.748;2022-09-30T12:17:21;3.80;;;2.45;;
72557;SDS011;60583;50.094;8.748;2022-09-30T12:20:06;4.13;;;2.63;;
72557;SDS011;60583;50.094;8.748;2022-09-30T12:22:43;4.13;;;2.42;;
72557;SDS011;60583;50.094;8.748;2022-09-30T12:25:30;4.40;;;2.60;;
72557;SDS011;60583;50.094;8.748;2022-09-30T12:28:02;4.45;;;2.45;;
72557;SDS011;60583;50.094;8.748;2022-09-30T12:30:59;5.18;;;2.38;;
72557;SDS011;60583;50.094;8.748;2022-09-30T12:36:30;3.95;;;2.10;;
72557;SDS011;60583;50.094;8.748;2022-09-30T12:39:23;4.85;;;2.10;;
72557;SDS011;60583;50.094;8.748;2022-09-30T12:48:02;3.25;;;2.00;;
72557;SDS011;60583;50.094;8.748;2022-09-30T12:50:39;3.65;;;1.98;;
72557;SDS011;60583;50.094;8.748;2022-09-30T12:53:27;4.47;;;2.00;;
72557;SDS011;60583;50.094;8.748;2022-09-30T12:56:07;3.80;;;2.13;;
72557;SDS011;60583;50.094;8.748;2022-09-30T12:58:36;3.63;;;1.90;;
72557;SDS011;60583;50.094;8.748;2022-09-30T13:01:09;3.67;;;1.95;;
72557;SDS011;60583;50.094;8.748;2022-09-30T13:03:42;3.28;;;1.75;;
72557;SDS011;60583;50.094;8.748;2022-09-30T13:06:17;6.35;;;3.03;;
72557;SDS011;60583;50.094;8.748;2022-09-30T13:08:45;3.85;;;1.73;;
72557;SDS011;60583;50.094;8.748;2022-09-30T13:19:41;6.57;;;2.05;;
72557;SDS011;60583;50.094;8.748;2022-09-30T13:30:37;4.68;;;1.80;;
72557;SDS011;60583;50.094;8.748;2022-09-30T13:33:05;3.08;;;1.70;;
72557;SDS011;60583;50.094;8.748;2022-09-30T13:36:06;4.07;;;1.80;;
72557;SDS011;60583;50.094;8.748;2022-09-30T13:38:40;4.47;;;1.65;;
72557;SDS011;60583;50.094;8.748;2022-09-30T13:41:17;3.50;;;1.55;;
72557;SDS011;60583;50.094;8.748;2022-09-30T13:46:46;2.88;;;1.33;;
72557;SDS011;60583;50.094;8.748;2022-09-30T13:49:17;3.33;;;1.50;;
72557;SDS011;60583;50.094;8.748;2022-09-30T13:52:08;3.35;;;1.35;;
72557;SDS011;60583;50.094;8.748;2022-09-30T13:54:44;4.10;;;1.52;;
72557;SDS011;60583;50.094;8.748;2022-09-30T13:57:21;5.40;;;1.58;;
72557;SDS011;60583;50.094;8.748;2022-09-30T14:00:06;2.60;;;1.33;;
72557;SDS011;60583;50.094;8.748;2022-09-30T14:05:47;4.10;;;1.38;;
72557;SDS011;60583;50.094;8.748;2022-09-30T14:08:30;3.78;;;1.33;;
72557;SDS011;60583;50.094;8.748;2022-09-30T14:11:25;4.00;;;1.73;;
72557;SDS011;60583;50.094;8.748;2022-09-30T14:14:03;3.58;;;1.70;;
72557;SDS011;60583;50.094;8.748;2022-09-30T14:22:03;3.80;;;1.58;;
72557;SDS011;60583;50.094;8.748;2022-09-30T14:24:34;2.88;;;1.30;;
72557;SDS011;60583;50.094;8.748;2022-09-30T14:32:43;4.07;;;1.38;;
72557;SDS011;60583;50.094;8.748;2022-09-30T14:35:11;3.67;;;1.55;;
72557;SDS011;60583;50.094;8.748;2022-09-30T14:37:44;4.03;;;1.90;;
72557;SDS011;60583;50.094;8.748;2022-09-30T14:40:16;4.75;;;2.42;;
72557;SDS011;60583;50.094;8.748;2022-09-30T14:42:44;6.40;;;2.55;;
72557;SDS011;60583;50.094;8.748;2022-09-30T14:45:14;5.80;;;1.92;;
72557;SDS011;60583;50.094;8.748;2022-09-30T14:47:46;5.03;;;2.42;;
72557;SDS011;60583;50.094;8.748;2022-09-30T14:50:17;3.75;;;1.60;;
72557;SDS011;60583;50.094;8.748;2022-09-30T14:52:47;3.63;;;1.80;;
72557;SDS011;60583;50.094;8.748;2022-09-30T14:55:24;2.92;;;1.70;;
72557;SDS011;60583;50.094;8.748;2022-09-30T15:03:21;4.30;;;2.00;;
72557;SDS011;60583;50.094;8.748;2022-09-30T15:05:46;4.35;;;1.80;;
72557;SDS011;60583;50.094;8.748;2022-09-30T15:08:13;3.78;;;1.83;;
72557;SDS011;60583;50.094;8.748;2022-09-30T15:10:52;3.20;;;1.67;;
72557;SDS011;60583;50.094;8.748;2022-09-30T15:13:20;5.20;;;2.58;;
72557;SDS011;60583;50.094;8.748;2022-09-30T15:15:48;4.38;;;1.90;;
72557;SDS011;60583;50.094;8.748;2022-09-30T15:18:30;3.53;;;2.22;;
72557;SDS011;60583;50.094;8.748;2022-09-30T15:21:04;4.18;;;2.28;;
72557;SDS011;60583;50.094;8.748;2022-09-30T15:23:34;4.22;;;2.10;;
72557;SDS011;60583;50.094;8.748;2022-09-30T15:26:02;5.30;;;2.10;;
72557;SDS011;60583;50.094;8.748;2022-09-30T15:28:28;3.83;;;1.83;;
72557;SDS011;60583;50.094;8.748;2022-09-30T15:30:55;5.30;;;1.90;;
72557;SDS011;60583;50.094;8.748;2022-09-30T15:33:22;3.35;;;2.00;;
72557;SDS011;60583;50.094;8.748;2022-09-30T15:35:59;5.15;;;1.73;;
72557;SDS011;60583;50.094;8.748;2022-09-30T15:38:26;3.55;;;1.80;;
72557;SDS011;60583;50.094;8.748;2022-09-30T15:41:06;4.00;;;1.80;;
72557;SDS011;60583;50.094;8.748;2022-09-30T15:46:25;3.67;;;1.70;;
72557;SDS011;60583;50.094;8.748;2022-09-30T15:51:57;3.33;;;1.80;;
72557;SDS011;60583;50.094;8.748;2022-09-30T15:54:45;5.20;;;1.83;;
72557;SDS011;60583;50.094;8.748;2022-09-30T16:00:31;6.07;;;2.85;;
72557;SDS011;60583;50.094;8.748;2022-09-30T16:03:32;4.60;;;1.98;;
72557;SDS011;60583;50.094;8.748;2022-09-30T16:05:53;4.40;;;2.08;;
72557;SDS011;60583;50.094;8.748;2022-09-30T16:11:22;5.57;;;2.30;;
72557;SDS011;60583;50.094;8.748;2022-09-30T16:13:51;4.32;;;2.00;;
72557;SDS011;60583;50.094;8.748;2022-09-30T16:16:23;3.13;;;1.65;;
72557;SDS011;60583;50.094;8.748;2022-09-30T16:18:51;5.28;;;2.00;;
72557;SDS011;60583;50.094;8.748;2022-09-30T16:21:29;4.18;;;1.75;;
72557;SDS011;60583;50.094;8.748;2022-09-30T16:26:46;5.35;;;2.17;;
72557;SDS011;60583;50.094;8.748;2022-09-30T16:29:15;5.22;;;1.83;;
72557;SDS011;60583;50.094;8.748;2022-09-30T16:31:42;6.00;;;2.30;;
72557;SDS011;60583;50.094;8.748;2022-09-30T16:34:42;5.55;;;2.58;;
72557;SDS011;60583;50.094;8.748;2022-09-30T16:37:02;3.72;;;2.20;;
72557;SDS011;60583;50.094;8.748;2022-09-30T16:39:34;5.32;;;2.00;;
72557;SDS011;60583;50.094;8.748;2022-09-30T16:42:00;4.45;;;2.25;;
72557;SDS011;60583;50.094;8.748;2022-09-30T16:44:28;4.22;;;2.20;;
72557;SDS011;60583;50.094;8.748;2022-09-30T16:47:03;4.68;;;2.40;;
72557;SDS011;60583;50.094;8.748;2022-09-30T16:49:28;5.65;;;2.50;;
72557;SDS011;60583;50.094;8.748;2022-09-30T16:51:54;5.93;;;2.40;;
72557;SDS011;60583;50.094;8.748;2022-09-30T16:54:19;10.48;;;4.95;;
72557;SDS011;60583;50.094;8.748;2022-09-30T16:56:45;9.60;;;6.57;;
72557;SDS011;60583;50.094;8.748;2022-09-30T16:59:14;6.93;;;3.20;;
72557;SDS011;60583;50.094;8.748;2022-09-30T17:01:41;5.65;;;2.75;;
72557;SDS011;60583;50.094;8.748;2022-09-30T17:04:06;5.68;;;2.60;;
72557;SDS011;60583;50.094;8.748;2022-09-30T17:06:33;6.93;;;2.90;;
72557;SDS011;60583;50.094;8.748;2022-09-30T17:08:59;7.03;;;3.13;;
72557;SDS011;60583;50.094;8.748;2022-09-30T17:11:27;6.15;;;2.63;;
72557;SDS011;60583;50.094;8.748;2022-09-30T17:13:55;6.53;;;2.42;;
72557;SDS011;60583;50.094;8.748;2022-09-30T17:16:21;5.45;;;3.08;;
72557;SDS011;60583;50.094;8.748;2022-09-30T17:18:48;6.55;;;2.72;;
72557;SDS011;60583;50.094;8.748;2022-09-30T17:21:17;6.75;;;2.97;;
72557;SDS011;60583;50.094;8.748;2022-09-30T17:23:47;5.93;;;3.40;;
72557;SDS011;60583;50.094;8.748;2022-09-30T17:26:12;7.88;;;3.47;;
72557;SDS011;60583;50.094;8.748;2022-09-30T17:28:38;7.22;;;3.83;;
72557;SDS011;60583;50.094;8.748;2022-09-30T17:31:03;9.00;;;4.57;;
72557;SDS011;60583;50.094;8.748;2022-09-30T17:33:30;6.85;;;3.92;;
72557;SDS011;60583;50.094;8.748;2022-09-30T17:35:57;7.88;;;4.80;;
72557;SDS011;60583;50.094;8.748;2022-09-30T17:38:23;10.93;;;5.47;;
72557;SDS011;60583;50.094;8.748;2022-09-30T17:40:49;10.90;;;6.82;;
72557;SDS011;60583;50.094;8.748;2022-09-30T17:43:33;12.25;;;7.03;;
72557;SDS011;60583;50.094;8.748;2022-09-30T17:45:58;13.02;;;7.13;;
72557;SDS011;60583;50.094;8.748;2022-09-30T17:48:24;11.32;;;7.82;;
72557;SDS011;60583;50.094;8.748;2022-09-30T17:50:49;10.27;;;5.93;;
72557;SDS011;60583;50.094;8.748;2022-09-30T17:53:17;7.75;;;3.90;;
72557;SDS011;60583;50.094;8.748;2022-09-30T17:55:43;7.45;;;3.50;;
72557;SDS011;60583;50.094;8.748;2022-09-30T17:58:15;8.25;;;3.85;;
72557;SDS011;60583;50.094;8.748;2022-09-30T18:00:42;8.55;;;4.50;;
72557;SDS011;60583;50.094;8.748;2022-09-30T18:03:08;9.02;;;4.95;;
72557;SDS011;60583;50.094;8.748;2022-09-30T18:05:34;7.38;;;4.47;;
72557;SDS011;60583;50.094;8.748;2022-09-30T18:08:00;10.43;;;6.38;;
72557;SDS011;60583;50.094;8.748;2022-09-30T18:10:26;7.93;;;4.70;;